createdAt,value
2019-01-27T00:01:40.657Z,63.43
2019-01-27T00:04:11.999Z,64.63
2019-01-27T00:06:43.564Z,65.70
2019-01-27T00:09:14.956Z,66.13
2019-01-27T00:11:46.482Z,58.17
2019-01-27T00:14:17.989Z,70.43
2019-01-27T00:16:50.419Z,69.00
2019-01-27T00:19:21.981Z,70.43
2019-01-27T00:21:55.560Z,66.63
2019-01-27T00:24:27.103Z,75.07
2019-01-27T00:27:00.009Z,54.80
2019-01-27T00:29:31.575Z,56.70
2019-01-27T00:32:14.505Z,59.80
2019-01-27T00:34:46.019Z,58.43
2019-01-27T00:37:17.305Z,51.93
2019-01-27T00:39:48.652Z,63.43
2019-01-27T00:42:20.203Z,52.43
2019-01-27T00:44:51.763Z,49.10
2019-01-27T00:47:24.175Z,46.20
2019-01-27T00:49:55.905Z,57.50
2019-01-27T00:52:27.632Z,55.20
2019-01-27T00:54:59.888Z,56.77
2019-01-27T00:57:31.256Z,52.13
2019-01-27T01:00:03.564Z,50.23
2019-01-27T01:02:35.158Z,57.00
2019-01-27T01:05:08.052Z,50.70
2019-01-27T01:07:39.908Z,59.10
2019-01-27T01:10:12.811Z,49.10
2019-01-27T01:12:44.460Z,48.43
2019-01-27T01:15:16.303Z,60.53
2019-01-27T01:17:48.275Z,59.77
2019-01-27T01:20:21.201Z,53.13
2019-01-27T01:22:52.640Z,58.63
2019-01-27T01:25:24.760Z,56.17
2019-01-27T01:27:56.251Z,56.23
2019-01-27T01:30:29.564Z,61.53
2019-01-27T01:33:01.264Z,57.97
2019-01-27T01:35:32.984Z,50.43
2019-01-27T01:38:04.538Z,56.70
2019-01-27T01:40:36.427Z,60.87
2019-01-27T01:43:07.591Z,64.87
2019-01-27T01:45:39.192Z,52.33
2019-01-27T01:48:10.745Z,58.03
2019-01-27T01:50:42.216Z,59.90
2019-01-27T01:53:14.544Z,49.33
2019-01-27T01:55:46.136Z,63.07
2019-01-27T01:58:18.187Z,55.43
2019-01-27T02:00:49.855Z,60.30
2019-01-27T02:03:21.692Z,57.77
2019-01-27T02:05:53.293Z,53.83
2019-01-27T02:08:26.065Z,53.23
2019-01-27T02:10:57.960Z,62.47
2019-01-27T02:13:29.583Z,54.30
2019-01-27T02:16:08.683Z,59.87
2019-01-27T02:18:41.196Z,54.67
2019-01-27T02:21:12.631Z,53.37
2019-01-27T02:23:44.933Z,59.37
2019-01-27T02:26:16.299Z,52.03
2019-01-27T02:28:47.978Z,61.53
2019-01-27T02:31:20.606Z,59.97
2019-01-27T02:33:52.225Z,45.97
2019-01-27T02:36:23.803Z,52.17
2019-01-27T02:38:55.450Z,56.33
2019-01-27T02:41:27.171Z,58.97
2019-01-27T02:43:58.840Z,57.47
2019-01-27T02:46:30.279Z,53.27
2019-01-27T02:49:01.893Z,49.43
2019-01-27T02:51:34.829Z,51.53
2019-01-27T02:54:07.231Z,48.20
2019-01-27T02:56:39.638Z,53.17
2019-01-27T02:59:11.376Z,60.07
2019-01-27T03:01:42.972Z,61.53
2019-01-27T03:04:14.280Z,59.30
2019-01-27T03:06:56.718Z,64.40
2019-01-27T03:09:44.066Z,54.57
2019-01-27T03:12:15.612Z,52.87
2019-01-27T03:14:46.982Z,50.27
2019-01-27T03:17:20.731Z,52.30
2019-01-27T03:19:52.193Z,48.87
2019-01-27T03:22:24.079Z,52.90
2019-01-27T03:24:55.612Z,53.23
2019-01-27T03:27:27.280Z,62.03
2019-01-27T03:29:58.651Z,56.27
2019-01-27T03:32:30.208Z,65.33
2019-01-27T03:35:01.802Z,59.90
2019-01-27T03:37:33.107Z,76.80
2019-01-27T03:40:05.214Z,65.40
2019-01-27T03:42:36.923Z,63.37
2019-01-27T03:45:09.637Z,68.17
2019-01-27T03:47:42.234Z,61.67
2019-01-27T03:50:15.451Z,62.43
2019-01-27T03:52:47.017Z,69.17
2019-01-27T03:55:19.201Z,58.37
2019-01-27T03:57:50.574Z,64.67
2019-01-27T04:00:22.184Z,65.00
2019-01-27T04:02:54.017Z,58.03
2019-01-27T04:05:25.347Z,82.03
2019-01-27T04:07:56.815Z,94.10
2019-01-27T04:10:28.560Z,82.17
2019-01-27T04:13:00.208Z,63.67
2019-01-27T04:15:31.721Z,66.90
2019-01-27T04:18:03.595Z,57.40
2019-01-27T04:20:35.031Z,57.07
2019-01-27T04:23:06.653Z,56.20
2019-01-27T04:25:37.866Z,58.80
2019-01-27T04:28:09.452Z,61.00
2019-01-27T04:30:40.891Z,65.27
2019-01-27T04:33:12.517Z,64.97
2019-01-27T04:35:43.911Z,50.20
2019-01-27T04:38:15.462Z,51.40
2019-01-27T04:40:47.060Z,49.43
2019-01-27T04:43:19.821Z,50.57
2019-01-27T04:45:51.634Z,60.87
2019-01-27T04:48:23.179Z,59.30
2019-01-27T04:50:54.645Z,66.23
2019-01-27T04:53:25.990Z,58.73
2019-01-27T04:55:57.488Z,63.03
2019-01-27T04:58:29.085Z,71.80
2019-01-27T05:01:00.478Z,62.63
2019-01-27T05:04:06.750Z,62.30
2019-01-27T05:06:38.390Z,60.80
2019-01-27T05:09:10.791Z,71.07
2019-01-27T05:11:42.153Z,60.90
2019-01-27T05:14:13.840Z,57.50
2019-01-27T05:16:45.202Z,58.00
2019-01-27T05:19:16.718Z,63.77
2019-01-27T05:21:48.319Z,58.13
2019-01-27T05:24:19.952Z,57.20
2019-01-27T05:26:51.516Z,57.03
2019-01-27T05:29:23.227Z,58.87
2019-01-27T05:31:54.778Z,64.37
2019-01-27T05:34:26.316Z,64.40
2019-01-27T05:36:57.896Z,72.93
2019-01-27T05:39:29.422Z,91.63
2019-01-27T05:42:01.078Z,82.93
2019-01-27T05:44:32.629Z,111.27
2019-01-27T05:47:03.987Z,183.13
2019-01-27T05:49:35.430Z,91.53
2019-01-27T05:52:25.612Z,75.20
2019-01-27T05:54:57.139Z,65.47
2019-01-27T05:57:28.675Z,64.80
2019-01-27T06:00:00.215Z,67.33
2019-01-27T06:02:31.755Z,69.77
2019-01-27T06:05:04.532Z,72.73
2019-01-27T06:07:36.199Z,81.63
2019-01-27T06:10:10.163Z,69.37
2019-01-27T06:12:41.599Z,63.77
2019-01-27T06:15:15.611Z,82.60
2019-01-27T06:17:46.991Z,78.80
2019-01-27T06:20:19.676Z,69.67
2019-01-27T06:22:51.088Z,76.13
2019-01-27T06:25:25.864Z,80.13
2019-01-27T06:27:55.472Z,77.13
2019-01-27T06:30:27.338Z,87.43
2019-01-27T06:33:16.322Z,75.63
2019-01-27T06:35:48.083Z,79.60
2019-01-27T06:38:20.399Z,80.40
2019-01-27T06:40:52.676Z,67.83
2019-01-27T06:43:24.014Z,76.77
2019-01-27T06:45:55.554Z,78.30
2019-01-27T06:48:26.927Z,84.40
2019-01-27T06:50:58.558Z,80.30
2019-01-27T06:53:29.920Z,77.97
2019-01-27T06:56:01.574Z,83.00
2019-01-27T06:58:50.491Z,86.10
2019-01-27T07:01:40.536Z,76.13
2019-01-27T07:04:39.932Z,87.47
2019-01-27T07:07:48.322Z,81.77
2019-01-27T07:10:51.631Z,80.57
2019-01-27T07:13:57.378Z,83.70
2019-01-27T07:17:00.672Z,88.60
2019-01-27T07:19:52.033Z,86.37
2019-01-27T07:22:55.525Z,87.33
2019-01-27T07:25:48.408Z,87.67
2019-01-27T07:28:30.805Z,97.83
2019-01-27T07:31:19.695Z,95.20
2019-01-27T07:34:14.876Z,86.77
2019-01-27T07:37:05.469Z,102.00
2019-01-27T07:39:56.583Z,104.63
2019-01-27T07:42:48.859Z,105.03
2019-01-27T07:45:51.647Z,109.37
2019-01-27T07:48:38.785Z,103.07
2019-01-27T07:51:27.862Z,92.60
2019-01-27T07:54:30.225Z,111.67
2019-01-27T07:57:23.619Z,95.40
2019-01-27T08:00:17.409Z,90.33
2019-01-27T08:03:12.055Z,89.73
2019-01-27T08:06:05.814Z,88.33
2019-01-27T08:08:46.497Z,108.90
2019-01-27T08:11:37.895Z,95.00
2019-01-27T08:14:26.778Z,89.70
2019-01-27T08:17:10.068Z,111.63
2019-01-27T08:19:48.639Z,89.43
2019-01-27T08:22:35.849Z,81.63
2019-01-27T08:25:32.050Z,81.03
2019-01-27T08:28:25.993Z,83.27
2019-01-27T08:31:09.932Z,84.90
2019-01-27T08:33:54.793Z,83.70
2019-01-27T08:36:56.982Z,91.90
2019-01-27T08:39:43.167Z,78.77
2019-01-27T08:42:39.334Z,92.00
2019-01-27T08:45:32.999Z,90.67
2019-01-27T08:48:04.950Z,106.40
2019-01-27T08:50:36.598Z,87.97
2019-01-27T08:53:08.124Z,82.73
2019-01-27T08:55:40.335Z,92.73
2019-01-27T08:58:12.870Z,74.73
2019-01-27T09:00:49.860Z,76.80
2019-01-27T09:03:47.524Z,64.17
2019-01-27T09:06:44.064Z,72.20
2019-01-27T09:09:53.258Z,78.53
2019-01-27T09:12:46.094Z,72.40
2019-01-27T09:15:51.369Z,69.77
2019-01-27T09:18:53.876Z,70.60
2019-01-27T09:21:56.630Z,75.23
2019-01-27T09:24:37.020Z,66.50
2019-01-27T09:27:28.443Z,69.43
2019-01-27T09:30:12.355Z,60.93
2019-01-27T09:33:19.893Z,70.27
2019-01-27T09:36:04.511Z,77.03
2019-01-27T09:38:54.711Z,68.87
2019-01-27T09:41:35.742Z,74.77
2019-01-27T09:44:37.827Z,78.93
2019-01-27T09:47:21.311Z,80.03
2019-01-27T09:50:17.326Z,74.07
2019-01-27T09:53:05.810Z,79.40
2019-01-27T09:56:01.246Z,72.37
2019-01-27T09:58:49.265Z,79.70
2019-01-27T10:01:39.553Z,95.27
2019-01-27T10:04:29.262Z,84.43
2019-01-27T10:07:37.519Z,88.33
2019-01-27T10:10:42.200Z,87.43
2019-01-27T10:13:21.517Z,85.27
2019-01-27T10:16:18.010Z,103.80
2019-01-27T10:18:57.007Z,129.17
2019-01-27T10:21:55.652Z,95.70
2019-01-27T10:24:53.171Z,97.97
2019-01-27T10:27:45.256Z,84.90
2019-01-27T10:30:42.790Z,81.50
2019-01-27T10:33:30.535Z,87.07
2019-01-27T10:36:20.042Z,100.20
2019-01-27T10:39:05.550Z,106.73
2019-01-27T10:41:54.151Z,92.03
2019-01-27T10:44:38.216Z,99.70
2019-01-27T10:47:31.500Z,111.07
2019-01-27T10:50:20.313Z,110.27
2019-01-27T10:53:13.177Z,96.43
2019-01-27T10:56:02.136Z,98.53
2019-01-27T10:59:04.064Z,109.77
2019-01-27T11:01:55.468Z,91.17
2019-01-27T11:04:48.345Z,91.27
2019-01-27T11:07:51.171Z,90.37
2019-01-27T11:11:00.502Z,78.93
2019-01-27T11:14:03.031Z,85.07
2019-01-27T11:17:24.322Z,78.03
2019-01-27T11:20:26.252Z,89.57
2019-01-27T11:23:28.655Z,84.37
2019-01-27T11:26:08.174Z,87.17
2019-01-27T11:28:46.581Z,92.27
2019-01-27T11:31:36.820Z,80.03
2019-01-27T11:34:33.775Z,82.17
2019-01-27T11:37:24.185Z,89.23
2019-01-27T11:40:20.332Z,104.03
2019-01-27T11:43:13.469Z,113.23
2019-01-27T11:46:02.085Z,111.23
2019-01-27T11:48:44.712Z,120.30
2019-01-27T11:51:40.981Z,93.27
2019-01-27T11:54:12.467Z,77.70
2019-01-27T11:56:43.733Z,68.67
2019-01-27T11:59:16.251Z,52.50
2019-01-27T12:01:47.944Z,56.27
2019-01-27T12:04:19.299Z,52.80
2019-01-27T12:06:50.721Z,51.77
2019-01-27T12:09:22.297Z,53.13
2019-01-27T12:11:53.935Z,61.30
2019-01-27T12:14:25.241Z,70.43
2019-01-27T12:16:56.720Z,57.80
2019-01-27T12:19:28.102Z,44.23
2019-01-27T12:22:00.031Z,52.63
2019-01-27T12:24:31.627Z,45.50
2019-01-27T12:27:02.972Z,44.97
2019-01-27T12:29:34.905Z,49.50
2019-01-27T12:32:06.628Z,50.37
2019-01-27T12:34:38.957Z,46.07
2019-01-27T12:37:10.522Z,48.37
2019-01-27T12:39:42.181Z,52.93
2019-01-27T12:42:14.208Z,56.57
2019-01-27T12:44:45.770Z,59.63
2019-01-27T12:47:17.223Z,51.90
2019-01-27T12:49:48.569Z,68.80
2019-01-27T12:52:19.960Z,58.23
2019-01-27T12:55:03.256Z,52.20
2019-01-27T12:57:35.270Z,47.07
2019-01-27T13:00:19.665Z,67.70
2019-01-27T13:02:52.297Z,59.27
2019-01-27T13:05:23.707Z,63.80
2019-01-27T13:07:56.327Z,62.00
2019-01-27T13:10:27.812Z,66.77
2019-01-27T13:12:59.575Z,64.10
2019-01-27T13:15:31.193Z,62.03
2019-01-27T13:18:02.836Z,49.50
2019-01-27T13:20:34.257Z,82.43
2019-01-27T13:23:05.774Z,69.77
2019-01-27T13:25:37.085Z,63.27
2019-01-27T13:28:18.917Z,78.60
2019-01-27T13:30:51.117Z,81.80
2019-01-27T13:33:22.601Z,73.70
2019-01-27T13:35:53.943Z,85.17
2019-01-27T13:38:25.546Z,75.77
2019-01-27T13:40:57.069Z,58.07
2019-01-27T13:43:28.592Z,55.70
2019-01-27T13:46:00.289Z,68.57
2019-01-27T13:48:31.853Z,80.77
2019-01-27T13:51:03.294Z,60.37
2019-01-27T13:53:35.825Z,72.67
2019-01-27T13:56:07.365Z,93.73
2019-01-27T13:58:38.934Z,87.83
2019-01-27T14:01:10.417Z,72.50
2019-01-27T14:03:41.961Z,54.83
2019-01-27T14:06:13.475Z,48.43
2019-01-27T14:08:45.216Z,44.57
2019-01-27T14:11:16.706Z,52.13
2019-01-27T14:13:49.267Z,44.83
2019-01-27T14:16:20.972Z,51.43
2019-01-27T14:18:52.483Z,49.60
2019-01-27T14:21:23.764Z,50.00
2019-01-27T14:23:56.067Z,52.17
2019-01-27T14:26:27.359Z,49.77
2019-01-27T14:28:58.854Z,62.60
2019-01-27T14:31:31.809Z,56.00
2019-01-27T14:34:03.551Z,61.63
2019-01-27T14:36:35.553Z,58.63
2019-01-27T14:39:08.988Z,53.03
2019-01-27T14:41:40.551Z,55.03
2019-01-27T14:44:12.171Z,69.60
2019-01-27T14:46:44.262Z,60.43
2019-01-27T14:49:16.010Z,67.17
2019-01-27T14:51:47.775Z,62.23
2019-01-27T14:54:19.552Z,59.27
2019-01-27T14:56:51.308Z,59.67
2019-01-27T14:59:22.933Z,66.90
2019-01-27T15:01:55.515Z,62.73
2019-01-27T15:04:26.936Z,66.00
2019-01-27T15:06:58.205Z,42.27
2019-01-27T15:09:29.756Z,42.97
2019-01-27T15:12:01.662Z,44.63
2019-01-27T15:14:34.159Z,94.30
2019-01-27T15:17:05.747Z,44.57
2019-01-27T15:19:38.304Z,58.13
2019-01-27T15:22:10.202Z,49.67
2019-01-27T15:24:43.056Z,40.97
2019-01-27T15:27:15.295Z,38.90
2019-01-27T15:29:46.785Z,36.63
2019-01-27T15:32:18.474Z,41.67
2019-01-27T15:34:49.779Z,37.60
2019-01-27T15:37:21.980Z,43.40
2019-01-27T15:39:53.514Z,93.03
2019-01-27T15:42:25.060Z,83.90
2019-01-27T15:44:56.686Z,92.00
2019-01-27T15:47:29.098Z,122.03
2019-01-27T15:50:00.713Z,109.83
2019-01-27T15:52:32.203Z,94.87
2019-01-27T15:55:04.726Z,120.03
2019-01-27T15:57:36.170Z,106.03
2019-01-27T16:00:11.481Z,109.03
2019-01-27T16:02:43.930Z,108.00
2019-01-27T16:05:17.941Z,98.40
2019-01-27T16:07:50.618Z,85.47
2019-01-27T16:10:23.125Z,95.53
2019-01-27T16:12:56.817Z,105.40
2019-01-27T16:15:30.178Z,100.47
2019-01-27T16:18:02.808Z,97.90
2019-01-27T16:20:34.321Z,111.20
2019-01-27T16:23:24.794Z,102.23
2019-01-27T16:25:57.358Z,99.70
2019-01-27T16:28:29.473Z,96.33
2019-01-27T16:31:28.837Z,106.83
2019-01-27T16:34:30.904Z,114.30
2019-01-27T16:37:02.217Z,103.93
2019-01-27T16:39:34.028Z,80.30
2019-01-27T16:42:05.745Z,85.20
2019-01-27T16:44:37.595Z,80.60
2019-01-27T16:47:09.012Z,88.57
2019-01-27T16:49:40.689Z,99.27
2019-01-27T16:52:12.117Z,95.20
2019-01-27T16:54:43.863Z,84.50
2019-01-27T16:57:15.378Z,74.60
2019-01-27T16:59:46.977Z,55.00
2019-01-27T17:02:19.441Z,48.00
2019-01-27T17:04:50.928Z,52.03
2019-01-27T17:07:22.302Z,63.93
2019-01-27T17:09:53.768Z,81.87
2019-01-27T17:12:25.283Z,76.67
2019-01-27T17:14:56.886Z,77.53
2019-01-27T17:17:28.308Z,73.57
2019-01-27T17:20:02.731Z,67.47
2019-01-27T17:22:33.594Z,56.63
2019-01-27T17:25:06.386Z,59.60
2019-01-27T17:27:38.207Z,50.37
2019-01-27T17:30:14.440Z,87.90
2019-01-27T17:32:46.052Z,84.90
2019-01-27T17:35:20.034Z,90.93
2019-01-27T17:37:51.777Z,91.33
2019-01-27T17:40:23.486Z,64.20
2019-01-27T17:42:54.786Z,49.63
2019-01-27T17:45:26.527Z,51.93
2019-01-27T17:47:58.084Z,43.40
2019-01-27T17:50:30.210Z,44.60
2019-01-27T17:53:01.300Z,43.57
2019-01-27T17:55:42.668Z,52.63
2019-01-27T17:58:54.272Z,55.07
2019-01-27T18:01:53.845Z,48.33
2019-01-27T18:04:49.997Z,52.20
2019-01-27T18:07:40.549Z,51.80
2019-01-27T18:10:22.668Z,53.07
2019-01-27T18:13:13.347Z,60.17
2019-01-27T18:15:48.584Z,49.97
2019-01-27T18:18:20.010Z,44.57
2019-01-27T18:20:51.625Z,40.83
2019-01-27T18:23:23.088Z,40.97
2019-01-27T18:25:54.708Z,42.13
2019-01-27T18:28:38.076Z,39.27
2019-01-27T18:31:10.529Z,40.40
2019-01-27T18:33:42.298Z,33.83
2019-01-27T18:36:14.327Z,31.53
2019-01-27T18:38:45.826Z,36.83
2019-01-27T18:41:17.515Z,35.43
2019-01-27T18:43:49.547Z,37.15
2019-01-27T18:46:21.372Z,32.77
2019-01-27T18:48:52.807Z,42.03
2019-01-27T18:51:27.620Z,36.93
2019-01-27T18:54:21.044Z,37.13
2019-01-27T18:57:20.643Z,36.77
2019-01-27T19:00:22.997Z,37.93
2019-01-27T19:03:16.183Z,36.50
2019-01-27T19:05:57.081Z,39.70
2019-01-27T19:09:05.554Z,38.20
2019-01-27T19:12:12.212Z,39.23
2019-01-27T19:15:05.652Z,37.87
2019-01-27T19:18:05.326Z,33.63
2019-01-27T19:21:02.264Z,48.37
2019-01-27T19:24:05.759Z,42.73
2019-01-27T19:26:58.359Z,35.33
2019-01-27T19:29:44.303Z,39.20
2019-01-27T19:32:31.647Z,41.00
2019-01-27T19:35:20.609Z,39.13
2019-01-27T19:38:00.563Z,63.80
2019-01-27T19:40:47.774Z,121.30
2019-01-27T19:43:44.109Z,123.03
2019-01-27T19:46:39.458Z,137.27
2019-01-27T19:49:38.614Z,102.83
2019-01-27T19:52:22.189Z,93.43
2019-01-27T19:55:22.704Z,87.37
2019-01-27T19:58:20.195Z,73.73
2019-01-27T20:01:23.883Z,68.00
2019-01-27T20:04:04.003Z,65.20
2019-01-27T20:06:46.179Z,66.40
2019-01-27T20:09:49.520Z,65.17
2019-01-27T20:12:36.761Z,62.90
2019-01-27T20:15:32.732Z,64.63
2019-01-27T20:18:15.172Z,61.80
2019-01-27T20:21:09.848Z,57.13
2019-01-27T20:23:50.545Z,64.00
2019-01-27T20:26:53.440Z,67.30
2019-01-27T20:29:56.117Z,64.00
2019-01-27T20:32:45.998Z,61.43
2019-01-27T20:35:40.369Z,64.40
2019-01-27T20:38:25.904Z,58.90
2019-01-27T20:41:25.960Z,57.08
2019-01-27T20:44:08.599Z,50.28
2019-01-27T20:46:55.807Z,60.65
2019-01-27T20:49:38.043Z,62.67
2019-01-27T20:52:23.695Z,63.80
2019-01-27T20:55:14.689Z,62.65
2019-01-27T20:57:59.503Z,60.65
2019-01-27T21:00:54.192Z,57.95
2019-01-27T21:03:36.506Z,52.27
2019-01-27T21:06:34.064Z,51.42
2019-01-27T21:09:23.735Z,63.65
2019-01-27T21:12:24.032Z,49.55
2019-01-27T21:15:03.468Z,49.90
2019-01-27T21:18:02.682Z,48.65
2019-01-27T21:20:34.861Z,53.38
2019-01-27T21:23:06.844Z,50.90
2019-01-27T21:25:38.834Z,50.98
2019-01-27T21:28:10.217Z,49.98
2019-01-27T21:30:41.538Z,58.90
2019-01-27T21:33:13.176Z,56.95
2019-01-27T21:35:44.431Z,58.13
2019-01-27T21:38:15.731Z,59.58
2019-01-27T21:40:47.212Z,61.15
2019-01-27T21:43:19.341Z,60.48
2019-01-27T21:45:50.790Z,70.65
2019-01-27T21:48:22.331Z,76.70
2019-01-27T21:50:53.925Z,65.95
2019-01-27T21:53:25.599Z,63.90
2019-01-27T21:55:57.323Z,65.95
2019-01-27T21:58:28.823Z,67.67
2019-01-27T22:01:00.463Z,64.03
2019-01-27T22:03:31.919Z,69.92
2019-01-27T22:06:03.199Z,62.27
2019-01-27T22:08:35.752Z,59.55
2019-01-27T22:11:07.379Z,62.85
2019-01-27T22:13:38.911Z,62.67
2019-01-27T22:16:10.320Z,63.20
2019-01-27T22:18:41.697Z,62.80
2019-01-27T22:21:13.131Z,60.75
2019-01-27T22:23:44.740Z,65.35
2019-01-27T22:26:16.179Z,74.40
2019-01-27T22:28:47.751Z,72.62
2019-01-27T22:31:19.313Z,97.97
2019-01-27T22:33:50.831Z,118.37
2019-01-27T22:36:22.684Z,91.57
2019-01-27T22:38:54.314Z,134.87
2019-01-27T22:41:25.846Z,190.88
2019-01-27T22:43:57.396Z,207.85
2019-01-27T22:46:28.959Z,158.65
2019-01-27T22:49:00.384Z,154.38
2019-01-27T22:51:31.908Z,179.18
2019-01-27T22:54:03.577Z,212.30
2019-01-27T22:56:36.226Z,173.38
2019-01-27T22:59:07.761Z,189.52
2019-01-27T23:01:39.412Z,142.65
2019-01-27T23:04:11.346Z,132.47
2019-01-27T23:06:42.922Z,106.12
2019-01-27T23:09:18.645Z,82.45
2019-01-27T23:11:50.297Z,87.67
2019-01-27T23:14:21.760Z,86.30
2019-01-27T23:16:53.471Z,97.27
2019-01-27T23:19:25.264Z,86.80
2019-01-27T23:21:56.795Z,82.65
2019-01-27T23:24:28.175Z,102.17
2019-01-27T23:26:59.834Z,87.05
2019-01-27T23:29:31.548Z,84.13
2019-01-27T23:32:03.102Z,78.45
2019-01-27T23:34:34.662Z,82.12
2019-01-27T23:37:06.002Z,71.10
2019-01-27T23:39:37.275Z,77.85
2019-01-27T23:42:08.891Z,77.10
2019-01-27T23:44:40.447Z,83.20
2019-01-27T23:47:12.036Z,79.32
2019-01-27T23:49:43.449Z,85.95
2019-01-27T23:52:15.168Z,77.47
2019-01-27T23:54:48.225Z,84.92
2019-01-27T23:57:19.857Z,82.70
2019-01-27T23:59:52.036Z,84.75
